createdAt,value
2017-05-16T00:00:18.010Z,2.86
2017-05-16T00:02:46.321Z,2.06
2017-05-16T00:05:14.668Z,2.42
2017-05-16T00:07:42.979Z,1.90
2017-05-16T00:10:11.286Z,2.18
2017-05-16T00:12:39.616Z,1.76
2017-05-16T00:15:07.922Z,2.40
2017-05-16T00:17:36.974Z,1.56
2017-05-16T00:20:05.289Z,2.66
2017-05-16T00:22:33.583Z,2.08
2017-05-16T00:25:02.630Z,2.42
2017-05-16T00:27:30.954Z,2.64
2017-05-16T00:29:59.266Z,2.14
2017-05-16T00:32:27.578Z,1.98
2017-05-16T00:34:56.669Z,2.32
2017-05-16T00:37:25.722Z,1.62
2017-05-16T00:39:54.031Z,1.88
2017-05-16T00:42:22.382Z,1.66
2017-05-16T00:44:50.694Z,1.80
2017-05-16T00:47:19.001Z,1.90
2017-05-16T00:49:47.330Z,1.74
2017-05-16T00:52:15.642Z,1.74
2017-05-16T00:54:44.689Z,2.32
2017-05-16T00:57:13.026Z,2.16
2017-05-16T00:59:41.335Z,3.08
2017-05-16T01:02:10.366Z,3.58
2017-05-16T01:04:38.683Z,2.72
2017-05-16T01:07:06.966Z,5.44
2017-05-16T01:09:35.256Z,2.54
2017-05-16T01:12:03.593Z,2.68
2017-05-16T01:14:31.884Z,2.12
2017-05-16T01:17:00.910Z,1.84
2017-05-16T01:19:29.261Z,1.72
2017-05-16T01:21:58.318Z,1.66
2017-05-16T01:24:26.634Z,2.18
2017-05-16T01:26:55.718Z,1.74
2017-05-16T01:29:24.771Z,1.54
2017-05-16T01:31:53.064Z,1.52
2017-05-16T01:34:21.395Z,1.30
2017-05-16T01:36:49.688Z,2.12
2017-05-16T01:39:17.998Z,2.26
2017-05-16T01:41:46.348Z,1.96
2017-05-16T01:44:14.659Z,1.70
2017-05-16T01:46:42.975Z,1.74
2017-05-16T01:49:12.050Z,1.50
2017-05-16T01:51:40.351Z,1.60
2017-05-16T01:54:09.461Z,2.14
2017-05-16T01:56:37.806Z,2.00
2017-05-16T01:59:06.114Z,2.62
2017-05-16T02:01:34.425Z,2.64
2017-05-16T02:04:02.765Z,2.08
2017-05-16T02:06:31.073Z,2.32
2017-05-16T02:08:59.368Z,1.94
2017-05-16T02:11:28.441Z,2.12
2017-05-16T02:13:56.746Z,2.00
2017-05-16T02:16:25.793Z,2.16
2017-05-16T02:18:54.147Z,2.00
2017-05-16T02:21:22.635Z,1.72
2017-05-16T02:23:50.943Z,1.60
2017-05-16T02:26:19.294Z,2.00
2017-05-16T02:28:47.587Z,1.82
2017-05-16T02:31:15.870Z,2.30
2017-05-16T02:33:44.217Z,1.90
2017-05-16T02:36:12.530Z,1.86
2017-05-16T02:38:40.842Z,2.14
2017-05-16T02:41:09.901Z,1.58
2017-05-16T02:43:38.187Z,1.50
2017-05-16T02:46:06.474Z,0.94
2017-05-16T02:48:34.815Z,1.02
2017-05-16T02:51:03.128Z,0.94
2017-05-16T02:53:31.427Z,1.50
2017-05-16T02:56:00.818Z,1.10
2017-05-16T02:58:29.141Z,1.36
2017-05-16T03:00:57.453Z,1.00
2017-05-16T03:03:25.798Z,1.30
2017-05-16T03:05:54.098Z,1.90
2017-05-16T03:08:22.389Z,1.90
2017-05-16T03:10:50.720Z,1.70
2017-05-16T03:13:19.015Z,1.90
2017-05-16T03:15:47.307Z,2.26
2017-05-16T03:18:15.634Z,2.30
2017-05-16T03:20:43.929Z,2.18
2017-05-16T03:23:12.227Z,1.80
2017-05-16T03:25:40.562Z,1.80
2017-05-16T03:28:08.851Z,2.18
2017-05-16T03:30:37.140Z,2.72
2017-05-16T03:33:05.476Z,2.44
2017-05-16T03:35:33.771Z,1.64
2017-05-16T03:38:02.059Z,1.88
2017-05-16T03:40:30.390Z,1.70
2017-05-16T03:42:58.682Z,1.66
2017-05-16T03:45:26.979Z,1.80
2017-05-16T03:47:55.319Z,1.94
2017-05-16T03:50:24.355Z,1.68
2017-05-16T03:52:52.650Z,2.28
2017-05-16T03:55:20.976Z,1.74
2017-05-16T03:57:49.269Z,1.52
2017-05-16T04:00:18.299Z,2.18
2017-05-16T04:02:46.627Z,2.38
2017-05-16T04:05:14.919Z,2.50
2017-05-16T04:07:43.965Z,2.62
2017-05-16T04:10:12.290Z,2.56
2017-05-16T04:12:41.314Z,2.32
2017-05-16T04:15:09.603Z,2.48
2017-05-16T04:17:37.936Z,2.06
2017-05-16T04:20:06.231Z,1.72
2017-05-16T04:22:34.527Z,2.94
2017-05-16T04:25:02.860Z,2.24
2017-05-16T04:27:31.156Z,2.00
2017-05-16T04:29:59.451Z,1.64
2017-05-16T04:32:27.796Z,2.48
2017-05-16T04:34:56.843Z,1.88
2017-05-16T04:37:25.148Z,2.68
2017-05-16T04:39:53.511Z,2.20
2017-05-16T04:42:21.820Z,1.90
2017-05-16T04:44:50.866Z,1.94
2017-05-16T04:47:19.224Z,1.86
2017-05-16T04:49:47.532Z,1.60
2017-05-16T04:52:15.834Z,2.16
2017-05-16T04:54:44.180Z,2.52
2017-05-16T04:57:12.493Z,2.32
2017-05-16T04:59:40.791Z,3.10
2017-05-16T05:02:09.132Z,2.52
2017-05-16T05:04:37.439Z,2.40
2017-05-16T05:07:05.740Z,2.26
2017-05-16T05:09:34.128Z,2.10
2017-05-16T05:12:03.159Z,2.12
2017-05-16T05:14:31.457Z,2.52
2017-05-16T05:16:59.783Z,2.88
2017-05-16T05:19:28.819Z,3.28
2017-05-16T05:21:57.120Z,2.70
2017-05-16T05:24:25.455Z,3.50
2017-05-16T05:26:53.746Z,3.46
2017-05-16T05:29:22.040Z,3.14
2017-05-16T05:31:50.369Z,2.90
2017-05-16T05:34:18.664Z,3.50
2017-05-16T05:36:46.968Z,2.70
2017-05-16T05:39:15.305Z,2.46
2017-05-16T05:41:43.602Z,3.02
2017-05-16T05:44:11.897Z,2.30
2017-05-16T05:46:40.236Z,2.34
2017-05-16T05:49:08.535Z,2.62
2017-05-16T05:51:36.832Z,2.80
2017-05-16T05:54:05.183Z,3.12
2017-05-16T05:56:33.481Z,2.80
2017-05-16T05:59:01.773Z,3.20
2017-05-16T06:01:30.115Z,3.98
2017-05-16T06:03:58.417Z,3.78
2017-05-16T06:06:26.708Z,3.34
2017-05-16T06:08:55.056Z,3.36
2017-05-16T06:11:23.815Z,2.82
2017-05-16T06:13:52.851Z,2.80
2017-05-16T06:16:21.199Z,2.72
2017-05-16T06:18:49.498Z,2.92
2017-05-16T06:21:17.840Z,3.16
2017-05-16T06:23:46.193Z,3.26
2017-05-16T06:26:15.227Z,2.46
2017-05-16T06:28:43.527Z,3.56
2017-05-16T06:31:11.868Z,3.98
2017-05-16T06:33:40.174Z,2.70
2017-05-16T06:36:08.484Z,3.30
2017-05-16T06:38:36.829Z,3.10
2017-05-16T06:41:05.131Z,3.12
2017-05-16T06:43:34.207Z,3.20
2017-05-16T06:46:03.296Z,3.00
2017-05-16T06:48:31.616Z,3.80
2017-05-16T06:50:59.939Z,3.36
2017-05-16T06:53:28.273Z,3.68
2017-05-16T06:55:56.571Z,2.76
2017-05-16T06:58:25.619Z,3.06
2017-05-16T07:00:53.963Z,2.60
2017-05-16T07:03:22.263Z,3.30
2017-05-16T07:05:50.596Z,3.30
2017-05-16T07:08:18.940Z,3.16
2017-05-16T07:10:47.239Z,3.38
2017-05-16T07:13:15.563Z,2.88
2017-05-16T07:15:44.634Z,2.88
2017-05-16T07:18:12.940Z,3.00
2017-05-16T07:20:41.984Z,3.20
2017-05-16T07:23:10.319Z,3.38
2017-05-16T07:25:39.368Z,2.60
2017-05-16T07:28:07.673Z,3.18
2017-05-16T07:30:36.004Z,2.58
2017-05-16T07:33:04.317Z,2.68
2017-05-16T07:35:32.627Z,3.24
2017-05-16T07:38:01.711Z,3.38
2017-05-16T07:40:30.024Z,3.08
2017-05-16T07:42:58.343Z,2.72
2017-05-16T07:45:26.688Z,3.62
2017-05-16T07:47:55.015Z,2.70
2017-05-16T07:50:23.336Z,3.22
2017-05-16T07:52:51.685Z,2.88
2017-05-16T07:55:19.991Z,3.10
2017-05-16T07:57:48.304Z,3.24
2017-05-16T08:00:16.645Z,3.48
2017-05-16T08:02:44.943Z,2.70
2017-05-16T08:05:13.255Z,2.74
2017-05-16T08:07:41.588Z,3.00
2017-05-16T08:10:09.895Z,2.70
2017-05-16T08:12:38.199Z,2.70
2017-05-16T08:15:06.518Z,2.28
2017-05-16T08:17:34.823Z,2.74
2017-05-16T08:20:03.131Z,3.00
2017-05-16T08:22:31.473Z,2.62
2017-05-16T08:24:59.767Z,2.80
2017-05-16T08:27:28.073Z,3.16
2017-05-16T08:29:56.451Z,3.48
2017-05-16T08:32:24.765Z,2.92
2017-05-16T08:34:53.072Z,2.52
2017-05-16T08:37:21.408Z,2.20
2017-05-16T08:39:50.455Z,2.50
2017-05-16T08:42:18.747Z,2.64
2017-05-16T08:44:47.088Z,2.02
2017-05-16T08:47:15.388Z,2.56
2017-05-16T08:49:43.707Z,2.84
2017-05-16T08:52:12.778Z,1.92
2017-05-16T08:54:41.087Z,2.60
2017-05-16T08:57:09.389Z,1.98
2017-05-16T08:59:37.727Z,2.52
2017-05-16T09:02:06.783Z,2.20
2017-05-16T09:04:35.087Z,2.46
2017-05-16T09:07:03.449Z,2.18
2017-05-16T09:09:31.762Z,2.22
2017-05-16T09:12:00.807Z,2.68
2017-05-16T09:14:29.160Z,2.26
2017-05-16T09:16:57.462Z,1.66
2017-05-16T09:19:25.774Z,2.18
2017-05-16T09:21:54.115Z,2.22
2017-05-16T09:24:22.854Z,2.24
2017-05-16T09:26:51.892Z,2.26
2017-05-16T09:29:20.224Z,2.74
2017-05-16T09:31:48.537Z,1.72
2017-05-16T09:34:16.835Z,2.06
2017-05-16T09:36:45.159Z,2.38
2017-05-16T09:39:13.459Z,2.38
2017-05-16T09:41:41.774Z,2.40
2017-05-16T09:44:10.118Z,1.76
2017-05-16T09:46:39.171Z,1.98
2017-05-16T09:49:07.484Z,2.20
2017-05-16T09:51:36.549Z,1.72
2017-05-16T09:54:04.855Z,1.96
2017-05-16T09:56:33.903Z,2.30
2017-05-16T09:59:02.219Z,1.80
2017-05-16T10:01:30.524Z,2.08
2017-05-16T10:03:58.844Z,2.98
2017-05-16T10:06:27.140Z,2.30
2017-05-16T10:08:56.210Z,1.66
2017-05-16T10:11:24.506Z,1.72
2017-05-16T10:13:53.547Z,1.92
2017-05-16T10:16:21.867Z,2.40
2017-05-16T10:18:50.168Z,1.82
2017-05-16T10:21:18.503Z,1.86
2017-05-16T10:23:46.808Z,1.78
2017-05-16T10:26:15.870Z,1.30
2017-05-16T10:28:44.192Z,1.82
2017-05-16T10:31:13.300Z,1.60
2017-05-16T10:33:41.610Z,1.76
2017-05-16T10:38:37.393Z,1.64
2017-05-16T10:41:06.444Z,1.88
2017-05-16T10:43:34.769Z,1.58
2017-05-16T10:46:03.820Z,1.80
2017-05-16T10:48:32.169Z,1.30
2017-05-16T10:51:00.468Z,1.48
2017-05-16T10:53:28.762Z,1.58
2017-05-16T10:55:57.095Z,1.32
2017-05-16T10:58:25.398Z,1.82
2017-05-16T11:00:53.730Z,1.88
2017-05-16T11:03:22.771Z,1.92
2017-05-16T11:05:51.103Z,1.30
2017-05-16T11:08:20.144Z,1.60
2017-05-16T11:10:48.440Z,1.88
2017-05-16T11:13:16.780Z,2.02
2017-05-16T11:15:45.815Z,1.94
2017-05-16T11:18:14.169Z,1.40
2017-05-16T11:20:42.468Z,2.04
2017-05-16T11:23:10.763Z,2.18
2017-05-16T11:25:39.827Z,1.98
2017-05-16T11:28:08.131Z,1.90
2017-05-16T11:30:37.219Z,1.30
2017-05-16T11:33:05.519Z,1.66
2017-05-16T11:35:33.824Z,2.20
2017-05-16T11:38:02.147Z,1.82
2017-05-16T11:40:30.457Z,2.06
2017-05-16T11:42:58.774Z,2.04
2017-05-16T11:45:27.079Z,2.32
2017-05-16T11:47:55.385Z,1.84
2017-05-16T11:50:23.714Z,1.90
2017-05-16T11:52:52.015Z,1.96
2017-05-16T11:55:20.337Z,1.92
2017-05-16T11:57:48.637Z,1.92
2017-05-16T12:00:17.683Z,1.86
2017-05-16T12:02:46.006Z,1.94
2017-05-16T12:05:15.042Z,1.90
2017-05-16T12:07:43.384Z,1.98
2017-05-16T12:10:12.435Z,2.32
2017-05-16T12:12:40.735Z,2.00
2017-05-16T12:15:09.070Z,2.16
2017-05-16T12:17:37.376Z,1.78
2017-05-16T12:20:05.726Z,1.52
2017-05-16T12:22:34.033Z,1.80
2017-05-16T12:25:02.347Z,1.86
2017-05-16T12:27:31.415Z,1.88
2017-05-16T12:29:59.710Z,1.90
2017-05-16T12:32:28.794Z,1.74
2017-05-16T12:34:57.095Z,1.50
2017-05-16T12:37:25.398Z,1.76
2017-05-16T12:39:54.458Z,1.90
2017-05-16T12:42:22.772Z,1.78
2017-05-16T12:44:51.816Z,1.40
2017-05-16T12:47:20.151Z,1.80
2017-05-16T12:49:49.200Z,1.52
2017-05-16T12:52:17.532Z,1.76
2017-05-16T12:54:45.835Z,1.66
2017-05-16T12:57:14.144Z,1.52
2017-05-16T12:59:42.463Z,1.56
2017-05-16T13:02:11.501Z,1.70
2017-05-16T13:04:39.835Z,1.36
2017-05-16T13:07:08.867Z,1.50
2017-05-16T13:09:37.159Z,1.50
2017-05-16T13:12:05.483Z,1.98
2017-05-16T13:14:34.523Z,1.84
2017-05-16T13:17:02.858Z,1.42
2017-05-16T13:19:31.891Z,1.56
2017-05-16T13:22:00.184Z,1.20
2017-05-16T13:24:28.507Z,1.52
2017-05-16T13:26:57.571Z,1.78
2017-05-16T13:29:25.920Z,1.80
2017-05-16T13:31:54.228Z,1.66
2017-05-16T13:34:22.535Z,1.36
2017-05-16T13:36:50.871Z,1.72
2017-05-16T13:39:19.180Z,2.02
2017-05-16T13:41:47.489Z,1.76
2017-05-16T13:44:16.571Z,1.68
2017-05-16T13:46:44.872Z,1.84
2017-05-16T13:49:13.184Z,1.24
2017-05-16T13:51:41.551Z,1.82
2017-05-16T13:54:09.855Z,1.38
2017-05-16T13:56:38.164Z,2.62
2017-05-16T13:59:07.223Z,1.54
2017-05-16T14:01:35.551Z,1.22
2017-05-16T14:04:04.620Z,1.52
2017-05-16T14:06:32.935Z,1.46
2017-05-16T14:09:01.259Z,1.38
2017-05-16T14:11:29.584Z,1.30
2017-05-16T14:13:57.883Z,1.60
2017-05-16T14:16:26.196Z,2.10
2017-05-16T14:18:54.492Z,1.64
2017-05-16T14:21:23.575Z,1.46
2017-05-16T14:23:51.892Z,1.76
2017-05-16T14:26:20.191Z,1.64
2017-05-16T14:28:48.527Z,1.32
2017-05-16T14:31:17.571Z,1.72
2017-05-16T14:33:45.868Z,1.70
2017-05-16T14:36:14.182Z,1.32
2017-05-16T14:38:43.226Z,1.94
2017-05-16T14:41:11.564Z,1.44
2017-05-16T14:43:39.867Z,1.34
2017-05-16T14:46:08.173Z,1.42
2017-05-16T14:48:36.508Z,1.30
2017-05-16T14:51:04.807Z,1.64
2017-05-16T14:53:33.903Z,1.22
2017-05-16T14:56:02.209Z,1.20
2017-05-16T14:58:31.259Z,1.66
2017-05-16T15:00:59.594Z,1.86
2017-05-16T15:03:28.643Z,1.40
2017-05-16T15:05:57.019Z,1.20
2017-05-16T15:08:25.330Z,1.08
2017-05-16T15:10:53.639Z,1.90
2017-05-16T15:13:21.963Z,1.26
2017-05-16T15:15:50.264Z,1.00
2017-05-16T15:18:18.614Z,1.56
2017-05-16T15:20:46.918Z,1.60
2017-05-16T15:23:15.245Z,1.66
2017-05-16T15:25:43.572Z,1.34
2017-05-16T15:28:11.886Z,1.56
2017-05-16T15:30:40.223Z,1.40
2017-05-16T15:33:08.531Z,1.30
2017-05-16T15:35:36.831Z,1.44
2017-05-16T15:38:05.155Z,1.30
2017-05-16T15:40:33.453Z,1.78
2017-05-16T15:43:02.555Z,1.84
2017-05-16T15:45:30.845Z,1.44
2017-05-16T15:47:59.138Z,1.34
2017-05-16T15:50:27.451Z,1.40
2017-05-16T15:52:55.744Z,1.30
2017-05-16T15:55:24.064Z,1.26
2017-05-16T15:57:52.360Z,1.64
2017-05-16T16:00:20.654Z,1.52
2017-05-16T16:02:48.967Z,2.00
2017-05-16T16:05:18.344Z,1.26
2017-05-16T16:07:47.230Z,1.58
2017-05-16T16:10:15.527Z,2.00
2017-05-16T16:12:43.868Z,1.52
2017-05-16T16:15:12.163Z,1.80
2017-05-16T16:17:40.478Z,1.88
2017-05-16T16:20:08.798Z,1.68
2017-05-16T16:22:37.111Z,1.40
2017-05-16T16:25:05.449Z,1.60
2017-05-16T16:27:34.513Z,1.92
2017-05-16T16:30:02.819Z,1.40
2017-05-16T16:32:31.880Z,1.52
2017-05-16T16:35:00.176Z,1.88
2017-05-16T16:37:28.509Z,1.80
2017-05-16T16:39:56.803Z,1.70
2017-05-16T16:42:25.101Z,1.88
2017-05-16T16:44:53.425Z,1.40
2017-05-16T16:47:21.727Z,2.70
2017-05-16T16:49:50.070Z,4.00
2017-05-16T16:52:18.374Z,3.22
2017-05-16T16:54:46.678Z,2.04
2017-05-16T16:57:14.999Z,1.46
2017-05-16T16:59:44.074Z,2.08
2017-05-16T17:02:12.416Z,1.66
2017-05-16T17:04:40.731Z,1.52
2017-05-16T17:07:09.031Z,1.52
2017-05-16T17:09:38.100Z,2.22
2017-05-16T17:12:06.403Z,1.66
2017-05-16T17:14:34.739Z,2.00
2017-05-16T17:17:03.776Z,2.18
2017-05-16T17:19:32.078Z,1.84
2017-05-16T17:22:00.396Z,1.40
2017-05-16T17:24:29.435Z,2.60
2017-05-16T17:26:57.761Z,3.44
2017-05-16T17:29:26.808Z,1.92
2017-05-16T17:31:55.098Z,1.68
2017-05-16T17:34:23.420Z,1.78
2017-05-16T17:36:52.459Z,1.50
2017-05-16T17:39:20.792Z,1.40
2017-05-16T17:41:49.106Z,1.58
2017-05-16T17:44:17.399Z,1.40
2017-05-16T17:46:45.730Z,1.64
2017-05-16T17:49:14.039Z,2.02
2017-05-16T17:51:42.359Z,1.78
2017-05-16T17:54:11.394Z,1.80
2017-05-16T17:56:39.704Z,2.46
2017-05-16T17:59:08.023Z,1.58
2017-05-16T18:01:36.319Z,1.54
2017-05-16T18:04:04.716Z,1.36
2017-05-16T18:06:33.021Z,1.64
2017-05-16T18:09:01.323Z,1.24
2017-05-16T18:11:30.385Z,1.60
2017-05-16T18:13:58.684Z,1.58
2017-05-16T18:16:27.764Z,1.36
2017-05-16T18:18:56.067Z,1.40
2017-05-16T18:21:25.114Z,1.20
2017-05-16T18:23:53.443Z,1.30
2017-05-16T18:26:21.743Z,1.06
2017-05-16T18:28:50.080Z,1.26
2017-05-16T18:31:19.135Z,1.38
2017-05-16T18:33:47.441Z,1.36
2017-05-16T18:36:15.759Z,1.78
2017-05-16T18:38:44.056Z,1.80
2017-05-16T18:41:12.376Z,2.34
2017-05-16T18:43:40.672Z,2.72
2017-05-16T18:46:09.756Z,2.56
2017-05-16T18:48:38.055Z,1.90
2017-05-16T18:51:06.360Z,2.66
2017-05-16T18:53:34.692Z,2.70
2017-05-16T18:56:02.993Z,2.34
2017-05-16T18:58:31.327Z,2.26
2017-05-16T19:00:59.637Z,2.16
2017-05-16T19:03:27.936Z,2.28
2017-05-16T19:05:56.265Z,2.12
2017-05-16T19:08:25.309Z,2.78
2017-05-16T19:10:53.635Z,2.08
2017-05-16T19:13:21.931Z,2.70
2017-05-16T19:15:50.977Z,2.68
2017-05-16T19:18:19.293Z,1.96
2017-05-16T19:20:48.340Z,2.30
2017-05-16T19:23:16.679Z,2.00
2017-05-16T19:25:44.975Z,1.76
2017-05-16T19:28:13.266Z,1.96
2017-05-16T19:30:41.579Z,1.72
2017-05-16T19:33:09.871Z,2.62
2017-05-16T19:35:38.952Z,2.16
2017-05-16T19:38:07.262Z,2.56
2017-05-16T19:40:36.299Z,2.34
2017-05-16T19:43:04.607Z,2.10
2017-05-16T19:45:32.914Z,1.78
2017-05-16T19:48:01.242Z,1.84
2017-05-16T19:50:29.548Z,2.22
2017-05-16T19:52:57.858Z,2.46
2017-05-16T19:55:26.919Z,2.10
2017-05-16T19:57:55.211Z,2.04
2017-05-16T20:00:23.547Z,2.06
2017-05-16T20:02:51.848Z,1.84
2017-05-16T20:05:20.147Z,2.52
2017-05-16T20:07:48.469Z,2.10
2017-05-16T20:10:16.763Z,2.18
2017-05-16T20:12:45.097Z,2.30
2017-05-16T20:15:14.131Z,1.92
2017-05-16T20:17:42.453Z,1.92
2017-05-16T20:20:10.767Z,1.78
2017-05-16T20:22:39.059Z,1.86
2017-05-16T20:25:07.375Z,2.26
2017-05-16T20:27:35.666Z,2.22
2017-05-16T20:30:05.100Z,2.58
2017-05-16T20:32:33.453Z,2.50
2017-05-16T20:35:02.487Z,2.94
2017-05-16T20:37:30.909Z,2.82
2017-05-16T20:40:00.510Z,2.74
2017-05-16T20:42:29.567Z,2.84
2017-05-16T20:44:57.903Z,2.72
2017-05-16T20:47:26.212Z,2.30
2017-05-16T20:49:54.506Z,2.20
2017-05-16T20:52:22.817Z,2.60
2017-05-16T20:54:51.111Z,2.80
2017-05-16T20:57:19.440Z,2.92
2017-05-16T20:59:47.732Z,2.12
2017-05-16T21:02:16.829Z,2.20
2017-05-16T21:04:45.862Z,2.14
2017-05-16T21:07:14.158Z,1.92
2017-05-16T21:09:42.476Z,1.90
2017-05-16T21:12:11.516Z,2.00
2017-05-16T21:14:39.836Z,2.00
2017-05-16T21:17:08.127Z,2.22
2017-05-16T21:19:37.220Z,2.28
2017-05-16T21:22:06.255Z,2.72
2017-05-16T21:24:34.565Z,1.74
2017-05-16T21:27:02.879Z,2.18
2017-05-16T21:29:31.915Z,2.20
2017-05-16T21:32:00.240Z,2.76
2017-05-16T21:34:28.544Z,2.52
2017-05-16T21:36:56.865Z,2.40
2017-05-16T21:39:25.164Z,2.16
2017-05-16T21:41:53.462Z,2.08
2017-05-16T21:44:22.521Z,1.70
2017-05-16T21:46:50.825Z,2.20
2017-05-16T21:49:19.150Z,2.38
2017-05-16T21:51:47.451Z,1.70
2017-05-16T21:54:15.787Z,2.16
2017-05-16T21:56:44.071Z,2.36
2017-05-16T21:59:12.369Z,2.02
2017-05-16T22:01:41.429Z,2.54
2017-05-16T22:04:09.723Z,2.70
2017-05-16T22:06:38.041Z,2.62
2017-05-16T22:09:06.341Z,2.88
2017-05-16T22:11:34.680Z,2.52
2017-05-16T22:14:03.707Z,3.04
2017-05-16T22:16:32.003Z,2.20
2017-05-16T22:19:00.311Z,2.18
2017-05-16T22:21:28.603Z,2.36
2017-05-16T22:23:57.662Z,1.86
2017-05-16T22:26:25.969Z,2.26
2017-05-16T22:28:55.042Z,2.20
2017-05-16T22:31:23.340Z,2.00
2017-05-16T22:33:52.376Z,2.14
2017-05-16T22:36:20.690Z,1.80
2017-05-16T22:38:48.985Z,2.24
2017-05-16T22:41:17.295Z,2.18
2017-05-16T22:43:45.591Z,1.78
2017-05-16T22:46:13.914Z,2.20
2017-05-16T22:48:42.206Z,2.56
2017-05-16T22:51:11.244Z,2.36
2017-05-16T22:53:39.563Z,2.28
2017-05-16T22:56:07.863Z,2.12
2017-05-16T22:58:36.184Z,2.06
2017-05-16T23:01:04.475Z,1.82
2017-05-16T23:03:32.807Z,2.08
2017-05-16T23:06:01.099Z,1.78
2017-05-16T23:08:29.398Z,2.38
2017-05-16T23:10:57.723Z,1.80
2017-05-16T23:13:26.760Z,2.04
2017-05-16T23:15:55.075Z,2.78
2017-05-16T23:18:23.381Z,2.86
2017-05-16T23:20:52.450Z,3.06
2017-05-16T23:23:20.748Z,2.80
2017-05-16T23:25:49.791Z,2.20
2017-05-16T23:28:18.108Z,3.30
2017-05-16T23:30:46.404Z,2.36
2017-05-16T23:33:14.728Z,2.04
2017-05-16T23:35:43.028Z,2.42
2017-05-16T23:38:11.376Z,2.36
2017-05-16T23:40:39.679Z,2.00
2017-05-16T23:43:07.975Z,2.06
2017-05-16T23:45:36.291Z,2.20
2017-05-16T23:48:05.328Z,1.96
2017-05-16T23:50:33.646Z,2.60
2017-05-16T23:53:01.941Z,2.36
2017-05-16T23:55:31.011Z,3.50
2017-05-16T23:57:59.312Z,3.04
